Terminal Aerodrome Forecast
Issued by NWS

Home | Current Version | Previous Version | Text Only | Print | Product List | Glossary On
Versions: 1 2 3 4 5 6 7 8 9 10 11 12 13 14 15 16 17 18 19
000
FTUS46 KMTR 211100
TAFSNS
TAF
KSNS 211137Z 2112/2212 12005KT 1/4SM FG VV002
     FM211700 VRB03KT P6SM FEW006 SCT040
     FM212000 28008KT P6SM FEW035 SCT150
     FM220200 14004KT P6SM SKC
     FM220900 12007KT P6SM BKN040=

USA.gov is the U.S. government's official web portal to all federal, state and local government web resources and services.